Time;durP1;ratioP1;P1;durP2;ratioP2;P2;SDS_P1;SDS_P2;PMS_P1;PMS_P2;Temp;Humidity;BMP_temperature;BMP_pressure;BME280_temperature;BME280_humidity;BME280_pressure;Samples;Min_cycle;Max_cycle;Signal;HPM_P1;HPM_P2
2023/04/15 00:01:17;;;;;;;9.03;6.10;;;;;;;10.23;68.59;99537.50;5009643;28;20260;-62
2023/04/15 00:03:47;;;;;;;8.37;6.73;;;;;;;10.19;68.35;99541.84;5011671;28;20296;-60
2023/04/15 00:06:15;;;;;;;8.20;6.53;;;;;;;10.19;68.33;99536.72;5009313;28;20678;-60
2023/04/15 00:08:43;;;;;;;10.03;6.57;;;;;;;10.21;68.11;99528.97;5010376;28;20654;-64
2023/04/15 00:11:11;;;;;;;7.37;6.67;;;;;;;10.21;68.46;99534.13;5007712;28;20737;-59
2023/04/15 00:13:39;;;;;;;10.23;6.70;;;;;;;10.21;67.70;99539.28;5008683;28;20203;-60
2023/04/15 00:16:09;;;;;;;7.70;6.30;;;;;;;10.19;67.62;99536.72;5010066;28;20246;-61
2023/04/15 00:18:38;;;;;;;7.47;5.83;;;;;;;10.19;67.69;99536.72;5006832;28;20661;-61
2023/04/15 00:21:06;;;;;;;7.53;6.27;;;;;;;10.16;68.95;99550.50;5006349;28;20211;-61
2023/04/15 00:23:35;;;;;;;8.27;6.73;;;;;;;10.10;69.80;99537.75;5010428;28;20821;-59
2023/04/15 00:26:03;;;;;;;9.50;6.30;;;;;;;9.99;71.22;99543.94;5010149;28;20207;-62
2023/04/15 00:28:31;;;;;;;7.77;6.70;;;;;;;9.90;71.83;99537.22;5005358;28;20712;-63
2023/04/15 00:30:59;;;;;;;11.53;7.17;;;;;;;9.81;72.91;99535.66;5011217;28;20257;-60
2023/04/15 00:33:27;;;;;;;9.07;7.57;;;;;;;9.72;74.06;99537.53;5009857;28;20257;-61
2023/04/15 00:35:56;;;;;;;8.47;7.57;;;;;;;9.65;73.91;99529.94;5011901;28;20565;-61
2023/04/15 00:38:24;;;;;;;8.73;7.37;;;;;;;9.65;74.33;99542.78;5008917;28;20203;-59
2023/04/15 00:40:52;;;;;;;10.77;7.40;;;;;;;9.64;74.01;99538.50;5008102;28;20657;-61
2023/04/15 00:43:20;;;;;;;8.90;6.57;;;;;;;9.66;72.96;99535.91;5008065;28;20215;-59
2023/04/15 00:45:50;;;;;;;8.03;6.87;;;;;;;9.66;73.67;99531.63;5007659;28;20203;-60
2023/04/15 00:48:18;;;;;;;8.90;6.93;;;;;;;9.64;74.04;99538.50;5008026;28;20316;-62
2023/04/15 00:50:47;;;;;;;8.63;6.53;;;;;;;9.64;74.08;99533.34;5007345;28;20231;-61
2023/04/15 00:53:16;;;;;;;9.47;6.83;;;;;;;9.56;75.22;99535.19;5009713;28;20306;-59
2023/04/15 00:55:46;;;;;;;9.40;7.03;;;;;;;9.50;74.90;99530.16;5010245;28;20230;-60
2023/04/15 00:58:14;;;;;;;9.00;7.47;;;;;;;9.48;75.05;99533.63;5008133;28;20610;-60
2023/04/15 01:00:43;;;;;;;9.20;7.40;;;;;;;9.47;75.66;99531.94;5006474;28;20608;-62
2023/04/15 01:03:11;;;;;;;8.03;7.23;;;;;;;9.48;74.67;99531.06;5010496;28;20203;-60
2023/04/15 01:05:40;;;;;;;8.27;7.20;;;;;;;9.51;75.16;99523.31;5001038;28;20570;-60
2023/04/15 01:08:08;;;;;;;9.57;7.30;;;;;;;9.53;74.64;99532.66;5001466;28;20211;-60
2023/04/15 01:10:38;;;;;;;8.23;7.03;;;;;;;9.55;74.65;99535.25;5006995;28;20214;-62
2023/04/15 01:13:06;;;;;;;9.97;7.63;;;;;;;9.58;74.27;99530.06;5010277;28;20199;-59
2023/04/15 01:15:36;;;;;;;11.40;7.40;;;;;;;9.62;74.51;99527.41;5003182;28;20203;-63
2023/04/15 01:18:04;;;;;;;7.83;7.03;;;;;;;9.64;75.09;99530.78;5004231;28;20199;-64
2023/04/15 01:20:32;;;;;;;10.80;7.83;;;;;;;9.65;74.96;99526.50;5009908;28;20226;-65
2023/04/15 01:23:01;;;;;;;8.20;6.97;;;;;;;9.59;75.82;99529.16;5007775;28;20239;-65
2023/04/15 01:25:33;;;;;;;9.67;8.03;;;;;;;9.49;75.71;99533.59;5009163;28;20243;-65
2023/04/15 01:28:01;;;;;;;11.33;7.70;;;;;;;9.42;77.25;99532.84;5005946;28;20204;-67
2023/04/15 01:30:29;;;;;;;9.93;8.17;;;;;;;9.38;78.11;99527.75;5007260;28;20242;-63
2023/04/15 01:32:57;;;;;;;8.80;7.87;;;;;;;9.36;78.72;99529.53;5007203;28;20204;-63
2023/04/15 01:35:25;;;;;;;9.87;8.23;;;;;;;9.32;78.82;99536.44;5009973;28;20215;-63
2023/04/15 01:37:54;;;;;;;9.10;8.10;;;;;;;9.26;79.24;99523.66;5008075;28;20214;-64
2023/04/15 01:40:22;;;;;;;10.97;8.80;;;;;;;9.24;79.65;99530.53;5006757;28;20215;-63
2023/04/15 01:42:51;;;;;;;9.60;8.50;;;;;;;9.22;79.19;99528.88;5009444;28;20239;-63
2023/04/15 01:45:20;;;;;;;10.30;9.27;;;;;;;9.20;80.13;99526.31;5008138;28;20238;-65
2023/04/15 01:47:48;;;;;;;9.93;8.70;;;;;;;9.21;79.83;99534.91;5005072;28;20200;-66
2023/04/15 01:50:16;;;;;;;9.23;8.30;;;;;;;9.21;80.65;99533.16;5009573;28;20702;-64
2023/04/15 01:52:44;;;;;;;10.47;9.10;;;;;;;9.17;80.46;99532.38;5012327;28;20207;-63
2023/04/15 01:55:12;;;;;;;10.57;9.47;;;;;;;9.11;81.98;99524.72;5012863;28;20667;-64
2023/04/15 01:57:41;;;;;;;10.10;8.73;;;;;;;9.06;81.82;99529.09;5008550;28;20662;-64
2023/04/15 02:00:11;;;;;;;12.07;9.43;;;;;;;9.03;82.79;99528.28;5008648;28;20238;-65
2023/04/15 02:02:39;;;;;;;12.00;9.77;;;;;;;8.99;82.49;99531.78;5010241;28;20300;-63
2023/04/15 02:05:08;;;;;;;10.80;9.33;;;;;;;8.94;83.28;99526.66;5008738;28;20733;-64
2023/04/15 02:07:36;;;;;;;11.93;9.33;;;;;;;8.92;83.44;99531.00;5010886;28;20220;-64
2023/04/15 02:10:05;;;;;;;10.67;9.07;;;;;;;8.87;83.92;99535.31;5013738;28;20210;-63
2023/04/15 02:12:33;;;;;;;12.13;9.97;;;;;;;8.84;83.50;99528.53;5012828;28;20211;-62
2023/04/15 02:15:00;;;;;;;13.20;10.93;;;;;;;8.84;84.87;99532.81;5011758;28;20218;-64
2023/04/15 02:17:30;;;;;;;14.87;9.83;;;;;;;8.80;84.14;99526.00;5008886;28;20622;-64
2023/04/15 02:19:58;;;;;;;13.63;10.90;;;;;;;8.78;84.56;99522.63;5012385;28;20215;-63
2023/04/15 02:22:26;;;;;;;12.23;10.37;;;;;;;8.77;85.07;99532.03;5010021;28;20245;-66
2023/04/15 02:24:54;;;;;;;13.77;10.77;;;;;;;8.77;84.48;99521.78;5012275;28;20199;-63
2023/04/15 02:27:22;;;;;;;12.10;10.67;;;;;;;8.82;84.29;99524.28;5008775;28;20208;-64
2023/04/15 02:29:51;;;;;;;12.57;10.07;;;;;;;8.85;83.61;99530.22;5013284;28;20207;-65
2023/04/15 02:32:19;;;;;;;11.77;10.50;;;;;;;8.86;84.31;99529.34;5013519;28;20286;-63
2023/04/15 02:34:51;;;;;;;12.13;10.77;;;;;;;8.79;84.11;99521.72;5008358;28;20831;-64
2023/04/15 02:37:19;;;;;;;11.07;9.87;;;;;;;8.86;83.61;99525.94;5007659;28;20203;-67
2023/04/15 02:39:48;;;;;;;12.50;10.83;;;;;;;8.88;83.65;99525.06;5014775;28;20238;-63
2023/04/15 02:42:15;;;;;;;11.93;10.13;;;;;;;8.93;82.81;99528.41;5013347;28;20219;-63
2023/04/15 02:44:43;;;;;;;13.80;10.40;;;;;;;8.95;83.63;99520.69;5010813;28;20273;-63
2023/04/15 02:47:13;;;;;;;12.77;9.73;;;;;;;8.94;83.02;99518.97;5011022;28;20736;-63
2023/04/15 02:49:41;;;;;;;11.53;10.20;;;;;;;8.92;82.36;99513.00;5012388;28;20199;-65
2023/04/15 02:52:10;;;;;;;11.33;9.93;;;;;;;8.98;82.33;99524.91;5011019;28;20662;-63
2023/04/15 02:54:38;;;;;;;11.23;9.87;;;;;;;9.00;82.37;99515.47;5009805;28;20555;-63
2023/04/15 02:57:10;;;;;;;10.73;9.57;;;;;;;9.04;82.24;99524.84;5006351;28;20208;-62
2023/04/15 02:59:38;;;;;;;11.30;10.20;;;;;;;9.05;82.40;99523.97;5011410;28;20200;-60
2023/04/15 03:05:30;;;;;;;11.63;10.03;;;;;;;9.03;82.61;99523.16;5003748;28;20230;-62
2023/04/15 03:07:59;;;;;;;12.10;10.13;;;;;;;9.02;82.24;99522.31;5007404;28;20208;-61
2023/04/15 03:10:28;;;;;;;11.63;10.43;;;;;;;9.04;82.58;99517.97;5010052;28;20203;-59
2023/04/15 03:12:56;;;;;;;12.97;10.83;;;;;;;9.02;81.50;99527.44;5013009;28;20207;-59
2023/04/15 03:15:24;;;;;;;11.67;9.40;;;;;;;9.03;81.58;99518.84;5009310;28;20231;-61
2023/04/15 03:17:52;;;;;;;13.60;10.77;;;;;;;9.03;81.98;99524.00;5009649;28;20262;-60
2023/04/15 03:20:20;;;;;;;11.53;10.30;;;;;;;9.06;81.47;99520.53;5009194;28;20207;-60
2023/04/15 03:22:48;;;;;;;10.93;9.57;;;;;;;9.09;81.75;99523.88;5011468;28;20246;-60
2023/04/15 03:25:18;;;;;;;11.10;9.23;;;;;;;9.12;82.20;99517.88;5010353;28;20242;-60
2023/04/15 03:27:46;;;;;;;10.10;8.83;;;;;;;9.12;81.36;99516.13;5007129;28;20234;-61
2023/04/15 03:30:14;;;;;;;13.70;9.80;;;;;;;9.12;80.67;99523.84;5010396;28;20655;-61
2023/04/15 03:32:42;;;;;;;10.40;8.50;;;;;;;9.10;81.80;99517.91;5003886;28;20255;-60
2023/04/15 03:35:10;;;;;;;16.03;9.53;;;;;;;9.10;81.59;99517.91;5012342;28;20286;-61
2023/04/15 03:37:37;;;;;;;11.67;9.63;;;;;;;9.09;81.60;99521.31;5009956;28;20550;-60
2023/04/15 03:40:07;;;;;;;11.37;9.27;;;;;;;9.11;81.64;99527.31;5010321;28;20210;-63
2023/04/15 03:42:37;;;;;;;10.00;8.90;;;;;;;9.10;81.53;99525.59;5008893;28;20223;-60
2023/04/15 03:45:06;;;;;;;12.27;9.80;;;;;;;9.10;81.39;99527.34;5012370;28;20215;-62
2023/04/15 03:47:34;;;;;;;9.80;8.80;;;;;;;9.10;82.09;99525.59;5008904;28;20256;-63
2023/04/15 03:50:02;;;;;;;11.20;9.17;;;;;;;9.12;82.15;99529.00;5008253;28;20273;-60
2023/04/15 03:52:30;;;;;;;9.83;8.77;;;;;;;9.11;81.06;99524.72;5009682;28;20203;-60
2023/04/15 03:54:58;;;;;;;11.63;9.67;;;;;;;9.08;81.63;99535.03;5011426;28;20204;-59
2023/04/15 03:57:26;;;;;;;10.37;9.23;;;;;;;9.09;80.96;99529.03;5007700;28;20261;-59
2023/04/15 03:59:55;;;;;;;10.50;9.20;;;;;;;9.10;82.21;99527.34;5009022;28;20247;-60
2023/04/15 04:02:23;;;;;;;10.30;9.23;;;;;;;9.11;81.92;99524.72;5010448;28;20215;-62
2023/04/15 04:04:51;;;;;;;10.63;9.53;;;;;;;9.11;81.76;99536.75;5011656;28;20294;-58
2023/04/15 04:07:19;;;;;;;11.57;9.77;;;;;;;9.11;81.86;99527.31;5006596;28;20297;-59
2023/04/15 04:09:47;;;;;;;10.93;9.40;;;;;;;9.12;81.68;99539.28;5010884;28;20269;-65
2023/04/15 04:12:15;;;;;;;9.77;8.67;;;;;;;9.12;81.98;99529.00;5011244;28;20621;-57
2023/04/15 04:14:43;;;;;;;10.13;8.97;;;;;;;9.14;82.74;99531.56;5010851;28;20569;-62
2023/04/15 04:17:12;;;;;;;10.73;9.57;;;;;;;9.14;82.35;99527.25;5008931;28;20208;-61
2023/04/15 04:19:40;;;;;;;10.67;8.93;;;;;;;9.16;81.30;99545.22;5006261;28;20270;-62
2023/04/15 04:22:08;;;;;;;11.13;8.50;;;;;;;9.12;82.03;99541.84;5009775;28;20642;-60
2023/04/15 04:24:36;;;;;;;9.90;8.90;;;;;;;9.15;82.29;99536.66;5007246;28;20341;-58
2023/04/15 04:27:04;;;;;;;11.60;9.17;;;;;;;9.16;81.26;99532.38;5010112;28;20210;-58
2023/04/15 04:29:32;;;;;;;11.20;8.80;;;;;;;9.15;82.39;99534.09;5010631;28;20210;-58
2023/04/15 04:32:00;;;;;;;11.03;9.37;;;;;;;9.12;81.61;99530.72;5010365;28;20207;-59
2023/04/15 04:34:29;;;;;;;10.03;8.67;;;;;;;9.10;82.19;99543.59;5009983;28;20210;-60
2023/04/15 04:36:57;;;;;;;11.37;8.70;;;;;;;9.07;83.05;99535.09;5010559;28;20239;-59
2023/04/15 04:39:25;;;;;;;9.27;8.30;;;;;;;9.04;82.72;99535.97;5009046;28;20269;-60
2023/04/15 04:41:53;;;;;;;9.80;8.37;;;;;;;9.03;82.67;99531.69;5008785;28;20215;-62
2023/04/15 04:44:24;;;;;;;11.20;9.00;;;;;;;9.01;82.87;99542.88;5010082;28;20205;-64
2023/04/15 04:46:52;;;;;;;11.93;9.17;;;;;;;9.00;82.97;99539.44;5008314;28;20199;-66
2023/04/15 04:49:19;;;;;;;11.03;8.80;;;;;;;8.99;83.00;99537.75;5011012;28;20670;-64
2023/04/15 04:51:49;;;;;;;14.13;9.77;;;;;;;9.00;83.31;99536.03;5007682;28;20218;-67
2023/04/15 04:54:17;;;;;;;10.70;9.60;;;;;;;9.01;84.08;99530.00;4999211;28;20296;-63
2023/04/15 04:56:45;;;;;;;10.30;9.20;;;;;;;8.99;83.49;99531.78;5010587;28;20630;-62
2023/04/15 04:59:13;;;;;;;11.07;9.07;;;;;;;8.97;83.28;99528.34;5009685;28;20678;-63
2023/04/15 05:01:41;;;;;;;11.47;8.97;;;;;;;9.00;83.64;99534.31;5009204;28;20257;-63
2023/04/15 05:04:09;;;;;;;9.97;8.67;;;;;;;9.00;84.39;99549.72;5009517;28;20654;-62
2023/04/15 05:06:41;;;;;;;12.03;9.30;;;;;;;8.98;84.08;99536.03;5002884;28;20203;-62
2023/04/15 05:09:10;;;;;;;10.23;9.23;;;;;;;8.97;83.28;99539.47;5005838;28;20646;-62
2023/04/15 05:11:38;;;;;;;10.47;8.60;;;;;;;8.96;84.33;99537.78;5008021;28;20257;-63
2023/04/15 05:14:06;;;;;;;11.63;9.53;;;;;;;8.99;84.16;99537.75;5011169;28;20203;-62
2023/04/15 05:16:34;;;;;;;10.27;8.97;;;;;;;8.97;83.99;99536.91;5010289;28;20203;-64
2023/04/15 05:19:01;;;;;;;11.40;9.13;;;;;;;8.95;83.82;99533.53;5008102;28;20208;-63
2023/04/15 05:21:30;;;;;;;14.03;9.50;;;;;;;8.97;84.12;99541.22;5009127;28;20207;-65
2023/04/15 05:23:58;;;;;;;9.23;8.30;;;;;;;8.97;84.52;99536.91;5004694;28;20780;-62
2023/04/15 05:26:27;;;;;;;11.63;8.97;;;;;;;8.97;84.58;99539.47;5011203;28;20211;-64
2023/04/15 05:28:55;;;;;;;10.00;8.60;;;;;;;8.97;83.97;99543.78;5014619;28;20207;-63
2023/04/15 05:31:23;;;;;;;9.90;8.17;;;;;;;8.98;84.51;99541.16;5011498;28;20207;-63
2023/04/15 05:33:51;;;;;;;9.00;8.10;;;;;;;8.96;84.63;99532.66;5013726;28;20199;-64
2023/04/15 05:36:19;;;;;;;8.97;7.83;;;;;;;8.98;84.66;99537.75;5014135;28;20234;-62
2023/04/15 05:38:47;;;;;;;9.90;8.00;;;;;;;8.99;84.90;99540.31;5012798;28;20204;-64
2023/04/15 05:41:16;;;;;;;10.80;8.60;;;;;;;9.00;84.55;99542.03;5012593;28;20211;-63
2023/04/15 05:43:47;;;;;;;9.37;8.37;;;;;;;8.99;84.45;99542.91;5011415;28;20251;-68
2023/04/15 05:46:15;;;;;;;11.50;8.73;;;;;;;8.99;84.63;99539.47;5013298;28;20682;-63
2023/04/15 05:48:43;;;;;;;11.53;8.13;;;;;;;8.97;85.04;99543.78;5014774;28;20210;-62
2023/04/15 05:51:11;;;;;;;10.57;8.40;;;;;;;8.95;84.73;99554.09;5013656;28;20203;-64
2023/04/15 05:53:40;;;;;;;11.77;8.90;;;;;;;8.95;85.40;99552.38;5008908;28;20553;-63
2023/04/15 05:56:08;;;;;;;11.43;8.53;;;;;;;8.95;85.30;99546.38;5011847;28;20613;-64
2023/04/15 05:58:36;;;;;;;11.50;8.50;;;;;;;8.97;85.80;99549.75;5004390;28;20269;-63
2023/04/15 06:01:06;;;;;;;10.37;8.60;;;;;;;8.93;85.29;99548.09;5008074;28;20211;-65
2023/04/15 06:03:34;;;;;;;11.47;8.37;;;;;;;8.97;85.48;99549.75;5012814;28;20562;-65
2023/04/15 06:06:02;;;;;;;10.23;9.23;;;;;;;8.96;85.13;99548.06;5013317;28;20615;-64
2023/04/15 06:08:30;;;;;;;11.47;9.57;;;;;;;8.99;85.94;99553.16;5008895;28;20560;-61
2023/04/15 06:10:59;;;;;;;10.10;8.50;;;;;;;8.93;85.48;99541.25;5010295;28;20612;-62
2023/04/15 06:13:27;;;;;;;11.03;8.13;;;;;;;8.94;85.17;99540.38;5013182;28;20241;-66
2023/04/15 06:15:54;;;;;;;11.17;7.93;;;;;;;8.99;84.92;99557.47;5012406;28;20199;-66
2023/04/15 06:18:24;;;;;;;9.80;7.67;;;;;;;8.97;84.38;99560.03;5012342;28;20290;-64
2023/04/15 06:20:52;;;;;;;9.57;7.70;;;;;;;8.96;85.26;99563.50;5011219;28;20631;-63
2023/04/15 06:23:20;;;;;;;8.43;7.60;;;;;;;8.95;84.64;99562.63;5012408;28;20325;-64
2023/04/15 06:25:48;;;;;;;7.90;7.10;;;;;;;8.96;84.64;99560.91;5008066;28;20247;-63
2023/04/15 06:28:16;;;;;;;11.17;7.77;;;;;;;8.95;85.61;99560.06;5013778;28;20199;-63
2023/04/15 06:30:44;;;;;;;10.33;8.50;;;;;;;8.97;85.35;99562.59;5011718;28;20218;-62
2023/04/15 06:33:12;;;;;;;11.33;7.83;;;;;;;8.96;85.01;99563.50;5009697;28;20213;-63
2023/04/15 06:35:41;;;;;;;7.77;6.97;;;;;;;8.98;85.15;99566.03;5012872;28;20261;-62
2023/04/15 06:38:09;;;;;;;11.90;8.00;;;;;;;9.00;85.07;99575.41;5009657;28;20203;-66
2023/04/15 06:40:37;;;;;;;9.63;7.20;;;;;;;9.01;86.00;99568.56;5011614;28;20211;-64
2023/04/15 06:43:05;;;;;;;9.97;7.77;;;;;;;9.00;85.07;99565.16;5006552;28;20226;-63
2023/04/15 06:45:33;;;;;;;8.30;7.43;;;;;;;9.00;84.74;99574.56;5007250;28;20247;-63
2023/04/15 06:48:01;;;;;;;8.13;7.33;;;;;;;8.93;85.19;99558.38;5008408;28;20203;-62
2023/04/15 06:50:29;;;;;;;10.00;8.33;;;;;;;8.98;85.45;99576.31;5011098;28;20199;-64
2023/04/15 06:52:58;;;;;;;8.67;7.20;;;;;;;8.99;85.13;99578.88;5005359;28;20257;-63
2023/04/15 06:55:26;;;;;;;8.17;7.37;;;;;;;8.99;85.83;99576.31;5004262;28;20616;-64
2023/04/15 06:57:54;;;;;;;7.33;6.63;;;;;;;8.98;85.08;99581.44;5005157;28;20631;-63
2023/04/15 07:00:22;;;;;;;9.17;7.53;;;;;;;8.97;84.76;99582.31;5003749;28;20207;-64
2023/04/15 07:02:50;;;;;;;10.07;7.40;;;;;;;8.95;85.59;99582.34;5000873;28;20219;-64
2023/04/15 07:05:19;;;;;;;7.93;7.13;;;;;;;8.96;85.40;99584.03;5003101;28;20290;-62
2023/04/15 07:07:46;;;;;;;7.50;6.47;;;;;;;8.96;85.38;99589.19;5001063;28;20211;-63
2023/04/15 07:10:16;;;;;;;7.40;6.67;;;;;;;8.96;85.93;99599.47;5002575;28;20655;-65
2023/04/15 07:12:44;;;;;;;6.87;6.17;;;;;;;8.91;85.93;99590.94;5010352;28;20234;-64
2023/04/15 07:15:12;;;;;;;7.97;6.83;;;;;;;8.90;86.31;99589.25;5009506;28;20253;-64
2023/04/15 07:17:41;;;;;;;8.03;6.57;;;;;;;8.89;86.68;99584.97;5006474;28;20261;-64
2023/04/15 07:20:11;;;;;;;7.57;6.10;;;;;;;8.94;86.53;99598.63;5009421;28;20203;-63
2023/04/15 07:22:40;;;;;;;8.07;6.57;;;;;;;8.92;85.69;99598.66;5008011;28;20243;-64
2023/04/15 07:25:08;;;;;;;7.70;6.50;;;;;;;8.92;86.11;99593.50;5012418;28;20306;-64
2023/04/15 07:27:38;;;;;;;7.40;6.37;;;;;;;8.93;85.18;99596.91;5010783;28;20242;-63
2023/04/15 07:30:07;;;;;;;8.47;6.03;;;;;;;8.94;86.21;99594.31;5010726;28;20242;-63
2023/04/15 07:32:36;;;;;;;6.33;5.30;;;;;;;8.94;85.49;99598.63;5001927;28;20820;-65
2023/04/15 07:35:04;;;;;;;6.30;5.80;;;;;;;8.91;86.15;99598.66;5015608;28;20202;-63
2023/04/15 07:37:32;;;;;;;7.23;5.93;;;;;;;8.90;86.02;99596.94;5007535;28;20199;-66
2023/04/15 07:40:00;;;;;;;6.50;5.90;;;;;;;8.90;85.33;99599.53;5007309;28;20207;-64
2023/04/15 07:42:29;;;;;;;6.13;5.53;;;;;;;8.88;86.00;99594.41;4999870;28;20261;-65
2023/04/15 07:44:58;;;;;;;7.90;6.00;;;;;;;8.91;86.45;99590.94;5011476;28;20574;-64
2023/04/15 07:47:27;;;;;;;6.87;6.17;;;;;;;8.91;85.87;99596.94;5010571;28;20297;-65
2023/04/15 07:49:54;;;;;;;6.67;6.03;;;;;;;8.94;86.37;99596.03;5006959;28;20215;-64
2023/04/15 07:52:22;;;;;;;7.03;6.10;;;;;;;8.93;85.56;99594.34;5006151;28;20638;-65
2023/04/15 07:54:50;;;;;;;6.70;5.43;;;;;;;8.97;85.50;99588.31;5012228;28;20685;-64
2023/04/15 07:57:18;;;;;;;6.20;5.60;;;;;;;8.98;85.32;99602.84;5007989;28;20577;-62
2023/04/15 07:59:46;;;;;;;6.63;5.80;;;;;;;8.98;85.26;99594.28;5005570;28;20263;-65
2023/04/15 08:02:15;;;;;;;6.13;5.40;;;;;;;8.98;85.20;99596.84;5008195;28;20203;-65
2023/04/15 08:04:43;;;;;;;7.17;5.33;;;;;;;8.98;85.23;99597.69;5007264;28;20309;-64
2023/04/15 08:07:11;;;;;;;5.20;4.70;;;;;;;9.00;85.37;99593.41;5010543;28;20751;-65
2023/04/15 08:09:40;;;;;;;4.57;4.17;;;;;;;9.00;85.22;99587.44;5005678;28;20269;-66
2023/04/15 08:12:11;;;;;;;6.00;5.40;;;;;;;9.03;84.74;99593.38;5002629;28;20223;-69
2023/04/15 08:14:39;;;;;;;4.93;4.47;;;;;;;9.02;84.98;99589.13;5005438;28;20204;-67
2023/04/15 08:17:07;;;;;;;4.70;4.30;;;;;;;9.02;84.75;99586.53;5005334;28;20204;-66
2023/04/15 08:19:37;;;;;;;6.90;4.43;;;;;;;9.04;85.11;99591.66;5008253;28;20195;-68
2023/04/15 08:22:05;;;;;;;4.73;4.10;;;;;;;9.09;85.22;99595.84;5004153;28;20239;-68
2023/04/15 08:24:41;;;;;;;6.17;4.27;;;;;;;9.10;84.68;99589.84;5005464;28;20218;-68
2023/04/15 08:27:09;;;;;;;5.00;4.43;;;;;;;9.14;85.00;99588.94;5005433;28;20258;-66
2023/04/15 08:29:39;;;;;;;4.60;4.20;;;;;;;9.17;85.32;99598.34;4997824;28;20667;-65
2023/04/15 08:32:07;;;;;;;4.67;4.27;;;;;;;9.21;84.27;99594.03;5004247;28;20302;-65
2023/04/15 08:34:37;;;;;;;4.47;4.07;;;;;;;9.23;85.49;99587.13;5005194;28;20732;-64
2023/04/15 08:37:05;;;;;;;5.73;5.23;;;;;;;9.27;84.59;99599.06;5002193;28;20717;-63
2023/04/15 08:39:33;;;;;;;4.97;4.43;;;;;;;9.34;84.19;99595.53;5003191;28;20550;-66
2023/04/15 08:42:02;;;;;;;4.30;4.00;;;;;;;9.36;84.65;99589.50;5001425;28;20253;-63
2023/04/15 08:44:33;;;;;;;3.70;3.40;;;;;;;9.37;84.31;99596.34;5000679;28;20247;-62
2023/04/15 08:47:02;;;;;;;4.03;3.67;;;;;;;9.39;83.80;99596.34;5003848;28;20617;-66
2023/04/15 08:49:30;;;;;;;4.00;3.57;;;;;;;9.39;83.67;99596.34;4988158;28;20227;-67
2023/04/15 08:52:00;;;;;;;4.37;3.97;;;;;;;9.39;83.43;99609.19;5007064;28;20199;-68
2023/04/15 08:54:28;;;;;;;3.97;3.27;;;;;;;9.36;83.63;99602.38;5007452;28;20196;-66
2023/04/15 08:56:58;;;;;;;3.97;3.43;;;;;;;9.33;84.23;99599.84;5003013;28;20253;-66
2023/04/15 08:59:26;;;;;;;7.90;3.73;;;;;;;9.37;84.23;99601.47;5007990;28;20254;-66
2023/04/15 09:01:55;;;;;;;3.77;3.37;;;;;;;9.35;84.63;99597.22;5004423;28;20548;-66
2023/04/15 09:04:23;;;;;;;5.27;3.30;;;;;;;9.40;84.21;99608.31;5007066;28;20694;-66
2023/04/15 09:06:52;;;;;;;4.30;3.90;;;;;;;9.41;84.47;99603.13;4998765;28;20939;-65
2023/04/15 09:09:21;;;;;;;5.30;3.87;;;;;;;9.51;83.98;99601.28;5009102;28;20219;-65
2023/04/15 09:11:50;;;;;;;5.30;3.67;;;;;;;9.54;83.98;99608.13;5006218;28;20254;-67
2023/04/15 09:14:18;;;;;;;2.93;2.73;;;;;;;9.55;83.86;99610.66;5000330;28;20204;-67
2023/04/15 09:17:00;;;;;;;3.97;3.57;;;;;;;9.54;83.70;99608.97;5006266;28;20265;-67
2023/04/15 09:19:29;;;;;;;4.17;3.33;;;;;;;9.56;83.76;99611.50;5001878;28;20196;-67
2023/04/15 09:21:58;;;;;;;3.50;3.20;;;;;;;9.57;83.65;99598.66;5004825;28;20297;-67
2023/04/15 09:24:37;;;;;;;4.10;3.17;;;;;;;9.62;84.23;99604.56;5008928;28;20257;-66
2023/04/15 09:27:06;;;;;;;3.73;3.33;;;;;;;9.64;83.87;99605.38;5007277;28;20608;-65
2023/04/15 09:29:34;;;;;;;3.90;2.93;;;;;;;9.64;83.67;99600.22;5008111;28;20203;-63
2023/04/15 09:32:12;;;;;;;4.53;4.10;;;;;;;9.66;84.10;99603.63;5008628;28;20670;-67
2023/04/15 09:34:40;;;;;;;3.67;3.33;;;;;;;9.66;83.63;99600.22;5001394;28;20206;-66
2023/04/15 09:37:09;;;;;;;3.13;2.80;;;;;;;9.67;83.40;99596.78;5002944;28;20565;-69
2023/04/15 09:39:49;;;;;;;3.23;2.77;;;;;;;9.66;83.49;99610.50;5004877;28;20207;-67
2023/04/15 09:42:23;;;;;;;3.77;3.17;;;;;;;9.66;83.68;99615.66;5008497;28;20301;-67
2023/04/15 09:44:51;;;;;;;3.40;3.10;;;;;;;9.64;83.36;99612.25;5007019;28;20290;-67
2023/04/15 09:47:29;;;;;;;4.37;2.93;;;;;;;9.63;83.69;99616.53;5004953;28;20655;-68
2023/04/15 09:49:57;;;;;;;3.10;2.90;;;;;;;9.66;83.33;99621.66;5006845;28;20290;-69
2023/04/15 09:52:26;;;;;;;5.57;3.63;;;;;;;9.70;84.36;99612.16;5006565;28;20204;-68
2023/04/15 09:54:56;;;;;;;3.20;2.90;;;;;;;9.72;84.00;99619.84;5005171;28;20204;-69
2023/04/15 09:57:24;;;;;;;3.83;2.70;;;;;;;9.72;83.33;99622.41;4995436;28;20204;-71
2023/04/15 09:59:53;;;;;;;3.27;2.97;;;;;;;9.70;84.21;99622.44;5010577;28;20204;-68
2023/04/15 10:02:21;;;;;;;3.53;3.20;;;;;;;9.71;83.49;99625.88;5007392;28;20212;-68
2023/04/15 10:04:49;;;;;;;3.30;3.00;;;;;;;9.71;84.19;99619.00;5010618;28;20642;-67
2023/04/15 10:07:21;;;;;;;3.30;3.00;;;;;;;9.73;84.41;99619.84;5010847;28;20294;-68
2023/04/15 10:09:49;;;;;;;3.00;2.80;;;;;;;9.77;84.17;99618.06;5003824;28;20226;-69
2023/04/15 10:12:20;;;;;;;3.90;3.50;;;;;;;9.82;84.30;99624.84;5000832;28;20736;-73
2023/04/15 10:14:52;;;;;;;4.63;3.17;;;;;;;9.89;83.77;99616.16;5011019;28;20342;-68
2023/04/15 10:17:22;;;;;;;3.53;3.20;;;;;;;9.92;83.12;99620.41;5012302;28;20241;-68
2023/04/15 10:19:54;;;;;;;3.33;3.03;;;;;;;9.90;84.10;99614.41;5015280;28;20559;-68
2023/04/15 10:22:23;;;;;;;3.13;2.83;;;;;;;9.88;84.35;99617.03;5012844;28;20250;-67
2023/04/15 10:24:52;;;;;;;3.43;3.13;;;;;;;9.94;83.67;99623.78;5014178;28;20293;-68
2023/04/15 10:27:22;;;;;;;3.80;3.43;;;;;;;9.98;84.19;99622.88;5010718;28;20204;-67
2023/04/15 10:29:51;;;;;;;3.20;2.90;;;;;;;9.98;82.85;99617.75;5012244;28;20207;-67
2023/04/15 10:32:21;;;;;;;4.67;2.90;;;;;;;9.99;82.82;99627.16;5004960;28;20254;-67
2023/04/15 10:34:50;;;;;;;3.50;3.20;;;;;;;9.99;83.98;99622.00;5012508;28;20568;-67
2023/04/15 10:37:22;;;;;;;3.77;3.07;;;;;;;9.89;83.33;99608.44;5009559;28;20239;-67
2023/04/15 10:39:50;;;;;;;3.40;3.10;;;;;;;9.93;83.56;99616.94;5010362;28;20667;-67
2023/04/15 10:42:21;;;;;;;6.33;3.00;;;;;;;10.01;83.48;99621.97;5005742;28;20203;-66
2023/04/15 10:44:50;;;;;;;3.20;2.90;;;;;;;10.03;83.20;99621.09;5008831;28;20215;-67
2023/04/15 10:47:20;;;;;;;3.43;3.13;;;;;;;10.06;83.94;99623.63;5010371;28;20214;-67
2023/04/15 10:49:50;;;;;;;2.70;2.50;;;;;;;10.04;82.87;99625.34;5011284;28;20203;-68
2023/04/15 10:52:23;;;;;;;3.10;2.67;;;;;;;10.03;82.82;99621.09;5009548;28;20612;-69
2023/04/15 10:55:03;;;;;;;3.23;2.77;;;;;;;10.02;83.03;99624.53;5009051;28;20264;-72
2023/04/15 10:57:39;;;;;;;2.80;2.50;;;;;;;10.02;83.38;99623.69;5009556;28;20254;-67
2023/04/15 11:00:12;;;;;;;2.53;2.33;;;;;;;9.96;82.91;99624.63;5004662;28;20203;-68
2023/04/15 11:02:42;;;;;;;3.13;2.83;;;;;;;9.92;83.15;99615.25;5001529;28;20211;-68
2023/04/15 11:05:11;;;;;;;3.03;2.73;;;;;;;9.90;84.38;99623.00;5009350;28;20567;-62
2023/04/15 11:07:51;;;;;;;3.70;3.03;;;;;;;9.88;84.56;99624.75;5008351;28;20634;-63
2023/04/15 11:10:52;;;;;;;3.60;3.00;;;;;;;9.82;84.37;99624.00;5001405;28;20242;-63
2023/04/15 11:13:26;;;;;;;4.60;3.43;;;;;;;9.78;85.51;99619.75;5008312;28;20663;-63
2023/04/15 11:15:58;;;;;;;4.07;3.10;;;;;;;9.77;85.25;99618.06;5007578;28;20211;-63
2023/04/15 11:18:29;;;;;;;4.40;3.57;;;;;;;9.80;85.93;99630.91;5011386;28;20226;-63
2023/04/15 11:20:59;;;;;;;4.20;3.57;;;;;;;9.83;85.27;99630.81;5008976;28;20734;-63
2023/04/15 11:23:32;;;;;;;3.60;2.87;;;;;;;9.84;84.99;99630.81;5009452;28;20744;-64
2023/04/15 11:26:02;;;;;;;2.40;2.20;;;;;;;9.82;84.67;99632.56;5008789;28;20254;-63
2023/04/15 11:28:32;;;;;;;3.07;2.20;;;;;;;9.77;84.50;99631.78;5007503;28;21975;-62
2023/04/15 11:31:07;;;;;;;2.97;2.67;;;;;;;9.79;85.06;99626.59;5008262;28;20250;-63
2023/04/15 11:33:35;;;;;;;3.33;2.57;;;;;;;9.81;85.29;99627.44;5011083;28;20620;-63
2023/04/15 11:36:03;;;;;;;3.83;2.70;;;;;;;9.84;85.47;99627.41;5004629;28;20210;-63
2023/04/15 11:38:31;;;;;;;2.97;2.77;;;;;;;9.82;85.19;99639.44;5010400;28;20211;-63
2023/04/15 11:40:59;;;;;;;2.93;2.73;;;;;;;9.77;85.62;99625.78;5008198;28;20248;-63
2023/04/15 11:43:27;;;;;;;2.87;2.53;;;;;;;9.81;84.80;99638.56;5011601;28;20211;-63
2023/04/15 11:45:59;;;;;;;2.30;2.07;;;;;;;9.77;84.52;99636.09;5006333;28;20226;-64
2023/04/15 11:48:28;;;;;;;2.73;2.40;;;;;;;9.75;84.53;99641.22;5004640;28;20218;-67